sensor_id;sensor_type;location;lat;lon;timestamp;P1;durP1;ratioP1;P2;durP2;ratioP2
5876;SDS011;2964;42.144;24.730;2022-07-23T00:01:18;11.43;;;7.63;;
5876;SDS011;2964;42.144;24.730;2022-07-23T00:03:45;11.38;;;8.00;;
5876;SDS011;2964;42.144;24.730;2022-07-23T00:06:12;10.73;;;8.50;;
5876;SDS011;2964;42.144;24.730;2022-07-23T00:08:39;12.43;;;7.93;;
5876;SDS011;2964;42.144;24.730;2022-07-23T00:11:06;12.38;;;7.72;;
5876;SDS011;2964;42.144;24.730;2022-07-23T00:13:33;8.82;;;7.95;;
5876;SDS011;2964;42.144;24.730;2022-07-23T00:16:01;17.90;;;8.82;;
5876;SDS011;2964;42.144;24.730;2022-07-23T00:18:28;16.58;;;8.40;;
5876;SDS011;2964;42.144;24.730;2022-07-23T00:20:55;14.35;;;9.27;;
5876;SDS011;2964;42.144;24.730;2022-07-23T00:23:22;13.43;;;9.18;;
5876;SDS011;2964;42.144;24.730;2022-07-23T00:25:50;19.08;;;12.75;;
5876;SDS011;2964;42.144;24.730;2022-07-23T00:28:16;29.60;;;13.35;;
5876;SDS011;2964;42.144;24.730;2022-07-23T00:30:43;16.95;;;12.90;;
5876;SDS011;2964;42.144;24.730;2022-07-23T00:33:12;22.50;;;16.10;;
5876;SDS011;2964;42.144;24.730;2022-07-23T00:35:39;28.30;;;17.00;;
5876;SDS011;2964;42.144;24.730;2022-07-23T00:38:07;26.73;;;16.63;;
5876;SDS011;2964;42.144;24.730;2022-07-23T00:40:36;18.17;;;14.00;;
5876;SDS011;2964;42.144;24.730;2022-07-23T00:43:04;16.93;;;13.57;;
5876;SDS011;2964;42.144;24.730;2022-07-23T00:45:31;15.73;;;13.77;;
5876;SDS011;2964;42.144;24.730;2022-07-23T00:47:58;16.77;;;14.80;;
5876;SDS011;2964;42.144;24.730;2022-07-23T00:50:26;20.97;;;14.83;;
5876;SDS011;2964;42.144;24.730;2022-07-23T00:52:53;14.30;;;12.80;;
5876;SDS011;2964;42.144;24.730;2022-07-23T00:55:20;14.00;;;11.27;;
5876;SDS011;2964;42.144;24.730;2022-07-23T00:57:47;15.40;;;13.03;;
5876;SDS011;2964;42.144;24.730;2022-07-23T01:00:14;18.73;;;14.93;;
5876;SDS011;2964;42.144;24.730;2022-07-23T01:02:41;17.63;;;12.83;;
5876;SDS011;2964;42.144;24.730;2022-07-23T01:05:09;11.40;;;10.00;;
5876;SDS011;2964;42.144;24.730;2022-07-23T01:07:37;11.73;;;9.60;;
5876;SDS011;2964;42.144;24.730;2022-07-23T01:10:04;11.33;;;8.67;;
5876;SDS011;2964;42.144;24.730;2022-07-23T01:12:52;14.63;;;9.73;;
5876;SDS011;2964;42.144;24.730;2022-07-23T01:15:19;13.27;;;10.73;;
5876;SDS011;2964;42.144;24.730;2022-07-23T01:17:46;11.00;;;9.60;;
5876;SDS011;2964;42.144;24.730;2022-07-23T01:20:12;11.70;;;9.40;;
5876;SDS011;2964;42.144;24.730;2022-07-23T01:22:41;10.50;;;9.47;;
5876;SDS011;2964;42.144;24.730;2022-07-23T01:25:08;15.40;;;10.07;;
5876;SDS011;2964;42.144;24.730;2022-07-23T01:27:35;17.93;;;10.10;;
5876;SDS011;2964;42.144;24.730;2022-07-23T01:30:02;11.20;;;10.00;;
5876;SDS011;2964;42.144;24.730;2022-07-23T01:32:29;11.87;;;10.87;;
5876;SDS011;2964;42.144;24.730;2022-07-23T01:34:56;16.10;;;11.57;;
5876;SDS011;2964;42.144;24.730;2022-07-23T01:37:23;21.73;;;12.27;;
5876;SDS011;2964;42.144;24.730;2022-07-23T01:39:51;20.03;;;13.83;;
5876;SDS011;2964;42.144;24.730;2022-07-23T01:42:18;17.40;;;14.13;;
5876;SDS011;2964;42.144;24.730;2022-07-23T01:44:44;24.70;;;15.70;;
5876;SDS011;2964;42.144;24.730;2022-07-23T01:47:11;23.00;;;15.63;;
5876;SDS011;2964;42.144;24.730;2022-07-23T01:49:38;22.23;;;15.40;;
5876;SDS011;2964;42.144;24.730;2022-07-23T01:52:05;19.87;;;14.97;;
5876;SDS011;2964;42.144;24.730;2022-07-23T01:54:35;23.43;;;15.07;;
5876;SDS011;2964;42.144;24.730;2022-07-23T01:57:05;17.13;;;15.00;;
5876;SDS011;2964;42.144;24.730;2022-07-23T01:59:33;21.17;;;15.80;;
5876;SDS011;2964;42.144;24.730;2022-07-23T02:02:00;22.07;;;16.10;;
5876;SDS011;2964;42.144;24.730;2022-07-23T02:04:28;29.27;;;14.50;;
5876;SDS011;2964;42.144;24.730;2022-07-23T02:06:55;16.37;;;14.67;;
5876;SDS011;2964;42.144;24.730;2022-07-23T02:09:22;22.73;;;16.73;;
5876;SDS011;2964;42.144;24.730;2022-07-23T02:11:48;19.63;;;15.43;;
5876;SDS011;2964;42.144;24.730;2022-07-23T02:14:16;22.53;;;15.60;;
5876;SDS011;2964;42.144;24.730;2022-07-23T02:16:43;17.10;;;15.40;;
5876;SDS011;2964;42.144;24.730;2022-07-23T02:19:10;23.33;;;16.67;;
5876;SDS011;2964;42.144;24.730;2022-07-23T02:21:36;24.23;;;17.63;;
5876;SDS011;2964;42.144;24.730;2022-07-23T02:24:04;21.03;;;16.53;;
5876;SDS011;2964;42.144;24.730;2022-07-23T02:26:31;22.33;;;16.73;;
5876;SDS011;2964;42.144;24.730;2022-07-23T02:28:59;27.10;;;16.50;;
5876;SDS011;2964;42.144;24.730;2022-07-23T02:31:28;22.40;;;16.67;;
5876;SDS011;2964;42.144;24.730;2022-07-23T02:33:55;21.20;;;15.70;;
5876;SDS011;2964;42.144;24.730;2022-07-23T02:36:21;22.70;;;17.37;;
5876;SDS011;2964;42.144;24.730;2022-07-23T02:38:48;18.57;;;15.50;;
5876;SDS011;2964;42.144;24.730;2022-07-23T02:41:15;19.67;;;16.77;;
5876;SDS011;2964;42.144;24.730;2022-07-23T02:43:42;25.03;;;15.50;;
5876;SDS011;2964;42.144;24.730;2022-07-23T02:46:08;20.83;;;15.30;;
5876;SDS011;2964;42.144;24.730;2022-07-23T02:48:36;20.83;;;13.80;;
5876;SDS011;2964;42.144;24.730;2022-07-23T02:51:03;16.93;;;13.97;;
5876;SDS011;2964;42.144;24.730;2022-07-23T02:53:30;18.10;;;13.40;;
5876;SDS011;2964;42.144;24.730;2022-07-23T02:55:57;19.93;;;13.83;;
5876;SDS011;2964;42.144;24.730;2022-07-23T02:58:23;15.50;;;12.47;;
5876;SDS011;2964;42.144;24.730;2022-07-23T03:00:51;13.77;;;11.97;;
5876;SDS011;2964;42.144;24.730;2022-07-23T03:03:18;23.50;;;13.70;;
5876;SDS011;2964;42.144;24.730;2022-07-23T03:05:46;12.97;;;11.67;;
5876;SDS011;2964;42.144;24.730;2022-07-23T03:08:13;15.13;;;12.50;;
5876;SDS011;2964;42.144;24.730;2022-07-23T03:10:40;12.57;;;11.27;;
5876;SDS011;2964;42.144;24.730;2022-07-23T03:13:07;11.90;;;10.27;;
5876;SDS011;2964;42.144;24.730;2022-07-23T03:15:33;12.40;;;11.07;;
5876;SDS011;2964;42.144;24.730;2022-07-23T03:18:00;13.37;;;10.67;;
5876;SDS011;2964;42.144;24.730;2022-07-23T03:20:27;11.97;;;10.80;;
5876;SDS011;2964;42.144;24.730;2022-07-23T03:22:55;12.67;;;10.37;;
5876;SDS011;2964;42.144;24.730;2022-07-23T03:25:22;19.40;;;12.13;;
5876;SDS011;2964;42.144;24.730;2022-07-23T03:27:49;11.17;;;10.07;;
5876;SDS011;2964;42.144;24.730;2022-07-23T03:30:15;14.23;;;10.17;;
5876;SDS011;2964;42.144;24.730;2022-07-23T03:32:42;11.53;;;10.30;;
5876;SDS011;2964;42.144;24.730;2022-07-23T03:35:09;13.27;;;11.00;;
5876;SDS011;2964;42.144;24.730;2022-07-23T03:37:36;14.87;;;11.03;;
5876;SDS011;2964;42.144;24.730;2022-07-23T03:40:05;15.87;;;10.90;;
5876;SDS011;2964;42.144;24.730;2022-07-23T03:42:32;19.57;;;10.30;;
5876;SDS011;2964;42.144;24.730;2022-07-23T03:44:59;11.73;;;10.43;;
5876;SDS011;2964;42.144;24.730;2022-07-23T03:47:26;12.57;;;11.40;;
5876;SDS011;2964;42.144;24.730;2022-07-23T03:49:53;11.80;;;10.60;;
5876;SDS011;2964;42.144;24.730;2022-07-23T03:52:20;13.87;;;10.87;;
5876;SDS011;2964;42.144;24.730;2022-07-23T03:54:46;11.40;;;10.30;;
5876;SDS011;2964;42.144;24.730;2022-07-23T03:57:14;11.37;;;10.27;;
5876;SDS011;2964;42.144;24.730;2022-07-23T03:59:41;13.13;;;9.73;;
5876;SDS011;2964;42.144;24.730;2022-07-23T04:02:08;10.13;;;9.20;;
5876;SDS011;2964;42.144;24.730;2022-07-23T04:04:35;14.73;;;10.50;;
5876;SDS011;2964;42.144;24.730;2022-07-23T04:07:01;11.97;;;10.80;;
5876;SDS011;2964;42.144;24.730;2022-07-23T04:09:28;14.83;;;11.00;;
5876;SDS011;2964;42.144;24.730;2022-07-23T04:11:55;12.17;;;10.87;;
5876;SDS011;2964;42.144;24.730;2022-07-23T04:14:23;15.83;;;10.50;;
5876;SDS011;2964;42.144;24.730;2022-07-23T04:16:50;11.93;;;10.73;;
5876;SDS011;2964;42.144;24.730;2022-07-23T04:19:17;14.87;;;10.63;;
5876;SDS011;2964;42.144;24.730;2022-07-23T04:21:43;12.83;;;10.70;;
5876;SDS011;2964;42.144;24.730;2022-07-23T04:24:10;12.80;;;10.60;;
5876;SDS011;2964;42.144;24.730;2022-07-23T04:26:37;13.77;;;12.07;;
5876;SDS011;2964;42.144;24.730;2022-07-23T04:29:04;17.40;;;12.07;;
5876;SDS011;2964;42.144;24.730;2022-07-23T04:31:32;21.37;;;13.13;;
5876;SDS011;2964;42.144;24.730;2022-07-23T04:33:58;20.93;;;12.07;;
5876;SDS011;2964;42.144;24.730;2022-07-23T04:36:25;20.80;;;11.37;;
5876;SDS011;2964;42.144;24.730;2022-07-23T04:38:52;13.80;;;11.40;;
5876;SDS011;2964;42.144;24.730;2022-07-23T04:41:18;17.38;;;11.55;;
5876;SDS011;2964;42.144;24.730;2022-07-23T04:43:45;16.65;;;12.10;;
5876;SDS011;2964;42.144;24.730;2022-07-23T04:46:12;15.40;;;11.38;;
5876;SDS011;2964;42.144;24.730;2022-07-23T04:48:40;21.23;;;10.90;;
5876;SDS011;2964;42.144;24.730;2022-07-23T04:51:08;17.42;;;11.73;;
5876;SDS011;2964;42.144;24.730;2022-07-23T04:53:36;20.33;;;12.38;;
5876;SDS011;2964;42.144;24.730;2022-07-23T04:56:03;15.82;;;11.02;;
5876;SDS011;2964;42.144;24.730;2022-07-23T04:58:30;16.35;;;11.68;;
5876;SDS011;2964;42.144;24.730;2022-07-23T05:00:57;19.73;;;11.77;;
5876;SDS011;2964;42.144;24.730;2022-07-23T05:03:24;14.25;;;12.32;;
5876;SDS011;2964;42.144;24.730;2022-07-23T05:05:52;17.60;;;11.52;;
5876;SDS011;2964;42.144;24.730;2022-07-23T05:08:19;16.40;;;12.32;;
5876;SDS011;2964;42.144;24.730;2022-07-23T05:10:46;16.95;;;12.65;;
5876;SDS011;2964;42.144;24.730;2022-07-23T05:13:13;15.93;;;11.68;;
5876;SDS011;2964;42.144;24.730;2022-07-23T05:15:40;15.23;;;12.10;;
5876;SDS011;2964;42.144;24.730;2022-07-23T05:18:07;13.77;;;11.68;;
5876;SDS011;2964;42.144;24.730;2022-07-23T05:20:34;14.48;;;12.63;;
5876;SDS011;2964;42.144;24.730;2022-07-23T05:23:02;19.45;;;11.50;;
5876;SDS011;2964;42.144;24.730;2022-07-23T05:25:28;16.58;;;12.18;;
5876;SDS011;2964;42.144;24.730;2022-07-23T05:27:55;15.07;;;10.93;;
5876;SDS011;2964;42.144;24.730;2022-07-23T05:30:22;19.23;;;11.57;;
5876;SDS011;2964;42.144;24.730;2022-07-23T05:32:49;14.27;;;11.75;;
5876;SDS011;2964;42.144;24.730;2022-07-23T05:35:15;20.20;;;12.68;;
5876;SDS011;2964;42.144;24.730;2022-07-23T05:37:42;19.75;;;11.82;;
5876;SDS011;2964;42.144;24.730;2022-07-23T05:40:11;16.23;;;12.20;;
5876;SDS011;2964;42.144;24.730;2022-07-23T05:42:38;15.63;;;12.68;;
5876;SDS011;2964;42.144;24.730;2022-07-23T05:45:06;18.75;;;12.13;;
5876;SDS011;2964;42.144;24.730;2022-07-23T05:47:41;16.50;;;11.50;;
5876;SDS011;2964;42.144;24.730;2022-07-23T05:50:09;19.77;;;12.63;;
5876;SDS011;2964;42.144;24.730;2022-07-23T05:52:36;14.70;;;13.00;;
5876;SDS011;2964;42.144;24.730;2022-07-23T05:55:04;12.77;;;11.50;;
5876;SDS011;2964;42.144;24.730;2022-07-23T05:57:33;17.00;;;13.10;;
5876;SDS011;2964;42.144;24.730;2022-07-23T06:00:00;14.82;;;10.88;;
5876;SDS011;2964;42.144;24.730;2022-07-23T06:02:27;18.48;;;12.45;;
5876;SDS011;2964;42.144;24.730;2022-07-23T06:04:54;14.48;;;11.85;;
5876;SDS011;2964;42.144;24.730;2022-07-23T06:07:20;18.60;;;11.10;;
5876;SDS011;2964;42.144;24.730;2022-07-23T06:09:47;18.52;;;10.60;;
5876;SDS011;2964;42.144;24.730;2022-07-23T06:12:14;12.77;;;9.57;;
5876;SDS011;2964;42.144;24.730;2022-07-23T06:14:42;16.73;;;10.77;;
5876;SDS011;2964;42.144;24.730;2022-07-23T06:17:09;16.65;;;10.48;;
5876;SDS011;2964;42.144;24.730;2022-07-23T06:19:36;18.42;;;11.63;;
5876;SDS011;2964;42.144;24.730;2022-07-23T06:22:03;10.95;;;9.85;;
5876;SDS011;2964;42.144;24.730;2022-07-23T06:24:30;10.95;;;9.95;;
5876;SDS011;2964;42.144;24.730;2022-07-23T06:26:56;13.95;;;9.50;;
5876;SDS011;2964;42.144;24.730;2022-07-23T06:29:23;12.30;;;8.48;;
5876;SDS011;2964;42.144;24.730;2022-07-23T06:31:51;13.65;;;9.35;;
5876;SDS011;2964;42.144;24.730;2022-07-23T06:34:18;13.63;;;8.73;;
5876;SDS011;2964;42.144;24.730;2022-07-23T06:36:45;12.90;;;9.02;;
5876;SDS011;2964;42.144;24.730;2022-07-23T06:39:12;10.05;;;8.50;;
5876;SDS011;2964;42.144;24.730;2022-07-23T06:41:39;15.30;;;10.27;;
5876;SDS011;2964;42.144;24.730;2022-07-23T06:44:05;12.25;;;9.93;;
5876;SDS011;2964;42.144;24.730;2022-07-23T06:46:32;15.55;;;8.07;;
5876;SDS011;2964;42.144;24.730;2022-07-23T06:49:00;13.38;;;7.10;;
5876;SDS011;2964;42.144;24.730;2022-07-23T06:51:29;12.13;;;8.45;;
5876;SDS011;2964;42.144;24.730;2022-07-23T06:53:56;10.40;;;9.18;;
5876;SDS011;2964;42.144;24.730;2022-07-23T06:56:23;10.40;;;7.50;;
5876;SDS011;2964;42.144;24.730;2022-07-23T06:58:53;6.78;;;6.38;;
5876;SDS011;2964;42.144;24.730;2022-07-23T07:01:20;6.30;;;5.70;;
5876;SDS011;2964;42.144;24.730;2022-07-23T07:03:47;10.10;;;7.00;;
5876;SDS011;2964;42.144;24.730;2022-07-23T07:06:15;11.00;;;6.38;;
5876;SDS011;2964;42.144;24.730;2022-07-23T07:08:42;7.78;;;6.38;;
5876;SDS011;2964;42.144;24.730;2022-07-23T07:11:09;6.68;;;5.97;;
5876;SDS011;2964;42.144;24.730;2022-07-23T07:13:36;7.38;;;6.13;;
5876;SDS011;2964;42.144;24.730;2022-07-23T07:16:03;6.38;;;5.80;;
5876;SDS011;2964;42.144;24.730;2022-07-23T07:18:31;14.65;;;6.63;;
5876;SDS011;2964;42.144;24.730;2022-07-23T07:20:58;9.05;;;5.80;;
5876;SDS011;2964;42.144;24.730;2022-07-23T07:23:26;8.88;;;6.05;;
5876;SDS011;2964;42.144;24.730;2022-07-23T07:25:53;7.57;;;6.13;;
5876;SDS011;2964;42.144;24.730;2022-07-23T07:28:19;7.75;;;6.70;;
5876;SDS011;2964;42.144;24.730;2022-07-23T07:30:46;14.20;;;10.90;;
5876;SDS011;2964;42.144;24.730;2022-07-23T07:33:13;12.48;;;7.72;;
5876;SDS011;2964;42.144;24.730;2022-07-23T07:35:40;9.88;;;6.13;;
5876;SDS011;2964;42.144;24.730;2022-07-23T07:38:06;8.02;;;6.57;;
5876;SDS011;2964;42.144;24.730;2022-07-23T07:40:34;6.85;;;6.10;;
5876;SDS011;2964;42.144;24.730;2022-07-23T07:43:01;11.65;;;6.15;;
5876;SDS011;2964;42.144;24.730;2022-07-23T07:45:28;17.48;;;7.00;;
5876;SDS011;2964;42.144;24.730;2022-07-23T07:47:55;9.73;;;6.78;;
5876;SDS011;2964;42.144;24.730;2022-07-23T07:50:22;10.63;;;6.60;;
5876;SDS011;2964;42.144;24.730;2022-07-23T07:52:49;7.20;;;6.03;;
5876;SDS011;2964;42.144;24.730;2022-07-23T07:55:16;6.95;;;5.47;;
5876;SDS011;2964;42.144;24.730;2022-07-23T07:57:44;13.15;;;6.82;;
5876;SDS011;2964;42.144;24.730;2022-07-23T08:00:11;6.38;;;5.60;;
5876;SDS011;2964;42.144;24.730;2022-07-23T08:02:42;6.93;;;5.95;;
5876;SDS011;2964;42.144;24.730;2022-07-23T08:05:09;8.27;;;6.32;;
5876;SDS011;2964;42.144;24.730;2022-07-23T08:07:36;9.15;;;8.30;;
5876;SDS011;2964;42.144;24.730;2022-07-23T08:10:05;8.48;;;5.68;;
5876;SDS011;2964;42.144;24.730;2022-07-23T08:12:39;6.05;;;5.43;;
5876;SDS011;2964;42.144;24.730;2022-07-23T08:15:09;7.63;;;6.97;;
5876;SDS011;2964;42.144;24.730;2022-07-23T08:17:36;11.32;;;8.15;;
5876;SDS011;2964;42.144;24.730;2022-07-23T08:20:04;8.32;;;5.90;;
5876;SDS011;2964;42.144;24.730;2022-07-23T08:22:42;6.78;;;6.07;;
5876;SDS011;2964;42.144;24.730;2022-07-23T08:25:13;6.82;;;6.03;;
5876;SDS011;2964;42.144;24.730;2022-07-23T08:27:40;10.82;;;5.78;;
5876;SDS011;2964;42.144;24.730;2022-07-23T08:30:09;9.80;;;7.03;;
5876;SDS011;2964;42.144;24.730;2022-07-23T08:32:48;7.00;;;5.85;;
5876;SDS011;2964;42.144;24.730;2022-07-23T08:35:16;6.57;;;5.20;;
5876;SDS011;2964;42.144;24.730;2022-07-23T08:37:43;6.82;;;5.70;;
5876;SDS011;2964;42.144;24.730;2022-07-23T08:40:10;6.75;;;5.13;;
5876;SDS011;2964;42.144;24.730;2022-07-23T08:42:38;12.15;;;5.95;;
5876;SDS011;2964;42.144;24.730;2022-07-23T08:45:06;9.10;;;6.15;;
5876;SDS011;2964;42.144;24.730;2022-07-23T08:47:36;7.38;;;5.70;;
5876;SDS011;2964;42.144;24.730;2022-07-23T08:50:04;9.55;;;5.20;;
5876;SDS011;2964;42.144;24.730;2022-07-23T08:52:33;6.82;;;6.00;;
5876;SDS011;2964;42.144;24.730;2022-07-23T08:55:00;10.40;;;5.93;;
5876;SDS011;2964;42.144;24.730;2022-07-23T08:57:27;6.32;;;5.75;;
5876;SDS011;2964;42.144;24.730;2022-07-23T08:59:54;11.43;;;6.25;;
5876;SDS011;2964;42.144;24.730;2022-07-23T09:02:23;9.70;;;6.18;;
5876;SDS011;2964;42.144;24.730;2022-07-23T09:04:50;6.20;;;5.75;;
5876;SDS011;2964;42.144;24.730;2022-07-23T09:07:17;10.77;;;5.15;;
5876;SDS011;2964;42.144;24.730;2022-07-23T09:09:44;14.18;;;6.40;;
5876;SDS011;2964;42.144;24.730;2022-07-23T09:12:11;10.75;;;5.90;;
5876;SDS011;2964;42.144;24.730;2022-07-23T09:14:38;7.38;;;6.00;;
5876;SDS011;2964;42.144;24.730;2022-07-23T09:17:10;18.05;;;5.68;;
5876;SDS011;2964;42.144;24.730;2022-07-23T09:19:40;10.75;;;6.30;;
5876;SDS011;2964;42.144;24.730;2022-07-23T09:22:17;7.35;;;5.60;;
5876;SDS011;2964;42.144;24.730;2022-07-23T09:27:44;5.97;;;5.40;;
5876;SDS011;2964;42.144;24.730;2022-07-23T09:30:17;8.18;;;6.45;;
5876;SDS011;2964;42.144;24.730;2022-07-23T09:32:44;5.18;;;4.78;;
5876;SDS011;2964;42.144;24.730;2022-07-23T09:35:44;7.53;;;6.88;;
5876;SDS011;2964;42.144;24.730;2022-07-23T09:38:13;10.77;;;6.20;;
5876;SDS011;2964;42.144;24.730;2022-07-23T09:40:40;6.47;;;5.88;;
5876;SDS011;2964;42.144;24.730;2022-07-23T09:43:06;8.93;;;6.13;;
5876;SDS011;2964;42.144;24.730;2022-07-23T09:45:33;5.47;;;5.15;;
5876;SDS011;2964;42.144;24.730;2022-07-23T09:48:11;7.28;;;5.20;;
5876;SDS011;2964;42.144;24.730;2022-07-23T09:50:39;7.80;;;5.47;;
5876;SDS011;2964;42.144;24.730;2022-07-23T09:53:07;5.30;;;4.78;;
5876;SDS011;2964;42.144;24.730;2022-07-23T09:55:35;8.85;;;5.72;;
5876;SDS011;2964;42.144;24.730;2022-07-23T09:58:03;8.15;;;5.63;;
5876;SDS011;2964;42.144;24.730;2022-07-23T10:00:31;8.63;;;5.72;;
5876;SDS011;2964;42.144;24.730;2022-07-23T10:02:59;18.23;;;5.82;;
5876;SDS011;2964;42.144;24.730;2022-07-23T10:05:27;6.40;;;5.88;;
5876;SDS011;2964;42.144;24.730;2022-07-23T10:07:57;10.05;;;5.57;;
5876;SDS011;2964;42.144;24.730;2022-07-23T10:10:28;7.30;;;5.15;;
5876;SDS011;2964;42.144;24.730;2022-07-23T10:12:57;13.57;;;5.72;;
5876;SDS011;2964;42.144;24.730;2022-07-23T10:15:50;6.25;;;5.75;;
5876;SDS011;2964;42.144;24.730;2022-07-23T10:18:17;10.55;;;6.85;;
5876;SDS011;2964;42.144;24.730;2022-07-23T10:20:43;7.30;;;6.50;;
5876;SDS011;2964;42.144;24.730;2022-07-23T10:23:14;6.18;;;5.57;;
5876;SDS011;2964;42.144;24.730;2022-07-23T10:25:51;7.43;;;5.97;;
5876;SDS011;2964;42.144;24.730;2022-07-23T10:31:35;16.42;;;5.40;;
5876;SDS011;2964;42.144;24.730;2022-07-23T10:34:08;7.95;;;5.35;;
5876;SDS011;2964;42.144;24.730;2022-07-23T10:36:42;7.07;;;6.07;;
5876;SDS011;2964;42.144;24.730;2022-07-23T10:39:13;7.22;;;5.63;;
5876;SDS011;2964;42.144;24.730;2022-07-23T10:41:47;5.57;;;5.15;;
5876;SDS011;2964;42.144;24.730;2022-07-23T10:44:14;6.90;;;5.82;;
5876;SDS011;2964;42.144;24.730;2022-07-23T10:46:56;6.38;;;5.35;;
5876;SDS011;2964;42.144;24.730;2022-07-23T10:49:37;9.30;;;5.25;;
5876;SDS011;2964;42.144;24.730;2022-07-23T10:52:17;12.60;;;6.30;;
5876;SDS011;2964;42.144;24.730;2022-07-23T10:54:46;9.98;;;6.88;;
5876;SDS011;2964;42.144;24.730;2022-07-23T10:57:17;9.63;;;5.95;;
5876;SDS011;2964;42.144;24.730;2022-07-23T11:02:39;10.77;;;5.25;;
5876;SDS011;2964;42.144;24.730;2022-07-23T11:05:08;7.88;;;5.18;;
5876;SDS011;2964;42.144;24.730;2022-07-23T11:07:36;8.73;;;5.50;;
5876;SDS011;2964;42.144;24.730;2022-07-23T11:10:31;7.07;;;5.32;;
5876;SDS011;2964;42.144;24.730;2022-07-23T11:21:43;9.13;;;5.63;;
5876;SDS011;2964;42.144;24.730;2022-07-23T11:24:11;13.45;;;5.90;;
5876;SDS011;2964;42.144;24.730;2022-07-23T11:26:43;7.85;;;5.68;;
5876;SDS011;2964;42.144;24.730;2022-07-23T11:32:32;9.02;;;5.07;;
5876;SDS011;2964;42.144;24.730;2022-07-23T11:35:23;9.43;;;5.30;;
5876;SDS011;2964;42.144;24.730;2022-07-23T11:37:53;8.65;;;6.20;;
5876;SDS011;2964;42.144;24.730;2022-07-23T11:40:23;11.18;;;6.25;;
5876;SDS011;2964;42.144;24.730;2022-07-23T11:42:52;9.00;;;6.28;;
5876;SDS011;2964;42.144;24.730;2022-07-23T11:45:21;10.15;;;6.03;;
5876;SDS011;2964;42.144;24.730;2022-07-23T11:47:49;11.43;;;7.47;;
5876;SDS011;2964;42.144;24.730;2022-07-23T11:50:16;14.00;;;6.60;;
5876;SDS011;2964;42.144;24.730;2022-07-23T11:52:44;12.02;;;6.28;;
5876;SDS011;2964;42.144;24.730;2022-07-23T11:55:11;9.63;;;5.90;;
5876;SDS011;2964;42.144;24.730;2022-07-23T11:57:41;10.45;;;6.03;;
5876;SDS011;2964;42.144;24.730;2022-07-23T12:00:09;11.80;;;5.93;;
5876;SDS011;2964;42.144;24.730;2022-07-23T12:02:38;12.52;;;5.80;;
5876;SDS011;2964;42.144;24.730;2022-07-23T12:05:07;12.50;;;5.78;;
5876;SDS011;2964;42.144;24.730;2022-07-23T12:07:36;12.57;;;6.22;;
5876;SDS011;2964;42.144;24.730;2022-07-23T12:10:05;9.20;;;5.75;;
5876;SDS011;2964;42.144;24.730;2022-07-23T12:12:37;11.18;;;6.57;;
5876;SDS011;2964;42.144;24.730;2022-07-23T12:15:06;7.85;;;6.18;;
5876;SDS011;2964;42.144;24.730;2022-07-23T12:17:34;8.45;;;6.28;;
5876;SDS011;2964;42.144;24.730;2022-07-23T12:20:03;8.98;;;5.68;;
5876;SDS011;2964;42.144;24.730;2022-07-23T12:22:36;13.63;;;5.78;;
5876;SDS011;2964;42.144;24.730;2022-07-23T12:25:06;7.03;;;5.80;;
5876;SDS011;2964;42.144;24.730;2022-07-23T12:27:34;9.93;;;5.22;;
5876;SDS011;2964;42.144;24.730;2022-07-23T12:30:18;10.18;;;5.97;;
5876;SDS011;2964;42.144;24.730;2022-07-23T12:32:48;9.85;;;6.22;;
5876;SDS011;2964;42.144;24.730;2022-07-23T12:35:16;8.68;;;5.47;;
5876;SDS011;2964;42.144;24.730;2022-07-23T12:37:46;14.65;;;5.38;;
5876;SDS011;2964;42.144;24.730;2022-07-23T12:40:25;10.02;;;5.78;;
5876;SDS011;2964;42.144;24.730;2022-07-23T12:42:54;15.82;;;6.40;;
5876;SDS011;2964;42.144;24.730;2022-07-23T12:45:23;8.52;;;5.50;;
5876;SDS011;2964;42.144;24.730;2022-07-23T12:47:54;8.65;;;5.95;;
5876;SDS011;2964;42.144;24.730;2022-07-23T12:53:17;7.72;;;5.65;;
5876;SDS011;2964;42.144;24.730;2022-07-23T12:55:46;7.68;;;5.20;;
5876;SDS011;2964;42.144;24.730;2022-07-23T12:58:15;10.80;;;6.70;;
5876;SDS011;2964;42.144;24.730;2022-07-23T13:00:50;10.02;;;5.28;;
5876;SDS011;2964;42.144;24.730;2022-07-23T13:03:21;9.55;;;6.53;;
5876;SDS011;2964;42.144;24.730;2022-07-23T13:05:49;11.75;;;5.90;;
5876;SDS011;2964;42.144;24.730;2022-07-23T13:08:17;6.53;;;5.30;;
5876;SDS011;2964;42.144;24.730;2022-07-23T13:10:44;11.63;;;6.15;;
5876;SDS011;2964;42.144;24.730;2022-07-23T13:13:13;11.82;;;6.25;;
5876;SDS011;2964;42.144;24.730;2022-07-23T13:15:41;10.23;;;6.50;;
5876;SDS011;2964;42.144;24.730;2022-07-23T13:18:08;10.05;;;5.88;;
5876;SDS011;2964;42.144;24.730;2022-07-23T13:20:35;6.93;;;5.47;;
5876;SDS011;2964;42.144;24.730;2022-07-23T13:23:03;10.23;;;6.80;;
5876;SDS011;2964;42.144;24.730;2022-07-23T13:25:32;6.80;;;6.18;;
5876;SDS011;2964;42.144;24.730;2022-07-23T13:27:59;12.27;;;7.38;;
5876;SDS011;2964;42.144;24.730;2022-07-23T13:30:26;10.27;;;5.63;;
5876;SDS011;2964;42.144;24.730;2022-07-23T13:32:52;11.93;;;6.00;;
5876;SDS011;2964;42.144;24.730;2022-07-23T13:35:19;8.25;;;6.32;;
5876;SDS011;2964;42.144;24.730;2022-07-23T13:37:46;7.50;;;5.72;;
5876;SDS011;2964;42.144;24.730;2022-07-23T13:40:13;10.52;;;6.47;;
5876;SDS011;2964;42.144;24.730;2022-07-23T13:42:41;13.68;;;6.35;;
5876;SDS011;2964;42.144;24.730;2022-07-23T13:45:08;11.57;;;6.35;;
5876;SDS011;2964;42.144;24.730;2022-07-23T13:47:36;17.23;;;7.13;;
5876;SDS011;2964;42.144;24.730;2022-07-23T13:50:04;8.60;;;6.05;;
5876;SDS011;2964;42.144;24.730;2022-07-23T13:52:31;10.23;;;5.97;;
5876;SDS011;2964;42.144;24.730;2022-07-23T13:54:59;12.07;;;6.55;;
5876;SDS011;2964;42.144;24.730;2022-07-23T13:57:31;8.60;;;5.95;;
5876;SDS011;2964;42.144;24.730;2022-07-23T14:00:00;12.50;;;6.13;;
5876;SDS011;2964;42.144;24.730;2022-07-23T14:02:27;7.53;;;5.78;;
5876;SDS011;2964;42.144;24.730;2022-07-23T14:04:57;11.38;;;5.68;;
5876;SDS011;2964;42.144;24.730;2022-07-23T14:07:23;12.70;;;5.90;;
5876;SDS011;2964;42.144;24.730;2022-07-23T14:09:52;8.65;;;6.38;;
5876;SDS011;2964;42.144;24.730;2022-07-23T14:12:19;7.90;;;5.85;;
5876;SDS011;2964;42.144;24.730;2022-07-23T14:14:46;8.35;;;6.43;;
5876;SDS011;2964;42.144;24.730;2022-07-23T14:17:14;7.70;;;5.55;;
5876;SDS011;2964;42.144;24.730;2022-07-23T14:19:41;9.70;;;5.95;;
5876;SDS011;2964;42.144;24.730;2022-07-23T14:22:07;10.27;;;6.40;;
5876;SDS011;2964;42.144;24.730;2022-07-23T14:24:34;11.35;;;5.57;;
5876;SDS011;2964;42.144;24.730;2022-07-23T14:27:01;11.20;;;6.43;;
5876;SDS011;2964;42.144;24.730;2022-07-23T14:29:29;8.13;;;5.95;;
5876;SDS011;2964;42.144;24.730;2022-07-23T14:31:58;12.02;;;6.80;;
5876;SDS011;2964;42.144;24.730;2022-07-23T14:34:27;8.93;;;5.75;;
5876;SDS011;2964;42.144;24.730;2022-07-23T14:36:53;11.57;;;6.40;;
5876;SDS011;2964;42.144;24.730;2022-07-23T14:39:21;8.52;;;5.82;;
5876;SDS011;2964;42.144;24.730;2022-07-23T14:41:48;7.70;;;6.63;;
5876;SDS011;2964;42.144;24.730;2022-07-23T14:44:15;8.95;;;5.50;;
5876;SDS011;2964;42.144;24.730;2022-07-23T14:46:45;8.77;;;5.93;;
5876;SDS011;2964;42.144;24.730;2022-07-23T14:49:12;14.40;;;7.13;;
5876;SDS011;2964;42.144;24.730;2022-07-23T14:51:40;9.43;;;5.80;;
5876;SDS011;2964;42.144;24.730;2022-07-23T14:54:07;10.52;;;6.78;;
5876;SDS011;2964;42.144;24.730;2022-07-23T14:56:34;8.57;;;6.20;;
5876;SDS011;2964;42.144;24.730;2022-07-23T14:59:01;7.57;;;6.40;;
5876;SDS011;2964;42.144;24.730;2022-07-23T15:01:31;7.15;;;5.70;;
5876;SDS011;2964;42.144;24.730;2022-07-23T15:03:58;12.18;;;6.35;;
5876;SDS011;2964;42.144;24.730;2022-07-23T15:06:25;13.10;;;5.75;;
5876;SDS011;2964;42.144;24.730;2022-07-23T15:08:53;17.27;;;7.85;;
5876;SDS011;2964;42.144;24.730;2022-07-23T15:11:20;9.80;;;6.75;;
5876;SDS011;2964;42.144;24.730;2022-07-23T15:13:47;7.68;;;6.43;;
5876;SDS011;2964;42.144;24.730;2022-07-23T15:16:14;9.60;;;6.57;;
5876;SDS011;2964;42.144;24.730;2022-07-23T15:18:40;8.38;;;5.82;;